createdAt,value
2022-12-18T00:01:50.820Z,101821.00
2022-12-18T00:04:25.953Z,101820.00
2022-12-18T00:07:01.366Z,101811.00
2022-12-18T00:09:31.152Z,101817.00
2022-12-18T00:14:44.023Z,101814.00
2022-12-18T00:17:11.831Z,101817.00
2022-12-18T00:19:39.667Z,101811.00
2022-12-18T00:22:07.646Z,101825.00
2022-12-18T00:24:36.056Z,101817.00
2022-12-18T00:27:04.014Z,101826.00
2022-12-18T00:29:31.855Z,101833.00
2022-12-18T00:31:59.718Z,101833.00
2022-12-18T00:34:27.571Z,101838.00
2022-12-18T00:36:55.436Z,101838.00
2022-12-18T00:39:23.535Z,101828.00
2022-12-18T00:42:09.789Z,101839.00
2022-12-18T00:44:37.677Z,101831.00
2022-12-18T00:47:05.740Z,101829.00
2022-12-18T00:49:33.688Z,101835.00
2022-12-18T00:52:01.589Z,101837.00
2022-12-18T00:54:29.607Z,101839.00
2022-12-18T00:56:57.384Z,101849.00
2022-12-18T00:59:25.114Z,101847.00
2022-12-18T01:01:56.040Z,101859.00
2022-12-18T01:04:23.916Z,101856.00
2022-12-18T01:06:51.669Z,101854.00
2022-12-18T01:09:21.846Z,101858.00
2022-12-18T01:11:49.731Z,101854.00
2022-12-18T01:14:17.535Z,101854.00
2022-12-18T01:16:45.762Z,101863.00
2022-12-18T01:19:13.688Z,101862.00
2022-12-18T01:21:41.704Z,101864.00
2022-12-18T01:24:11.351Z,101864.00
2022-12-18T01:26:39.066Z,101865.00
2022-12-18T01:29:06.964Z,101873.00
2022-12-18T01:31:35.741Z,101882.00
2022-12-18T01:34:05.445Z,101888.00
2022-12-18T01:36:37.448Z,101881.00
2022-12-18T01:39:06.078Z,101880.00
2022-12-18T01:41:53.912Z,101882.00
2022-12-18T01:44:58.650Z,101878.00
2022-12-18T01:47:47.002Z,101883.00
2022-12-18T01:50:35.004Z,101881.00
2022-12-18T01:53:13.030Z,101877.00
2022-12-18T01:55:46.986Z,101878.00
2022-12-18T01:58:15.151Z,101879.00
2022-12-18T02:00:43.185Z,101895.00
2022-12-18T02:03:11.307Z,101906.00
2022-12-18T02:05:57.366Z,101904.00
2022-12-18T02:08:53.544Z,101899.00
2022-12-18T02:11:42.606Z,101885.00
2022-12-18T02:14:19.265Z,101886.00
2022-12-18T02:16:54.376Z,101890.00
2022-12-18T02:19:41.363Z,101887.00
2022-12-18T02:22:22.588Z,101877.00
2022-12-18T02:24:56.424Z,101881.00
2022-12-18T02:27:24.735Z,101881.00
2022-12-18T02:29:58.576Z,101891.00
2022-12-18T02:32:35.009Z,101877.00
2022-12-18T02:35:06.736Z,101877.00
2022-12-18T02:37:35.617Z,101879.00
2022-12-18T02:40:07.278Z,101880.00
2022-12-18T02:42:38.370Z,101869.00
2022-12-18T02:45:09.330Z,101872.00
2022-12-18T02:47:41.177Z,101871.00
2022-12-18T02:54:40.653Z,101887.00
2022-12-18T02:57:26.349Z,101888.00
2022-12-18T02:59:58.601Z,101884.00
2022-12-18T03:02:40.432Z,101880.00
2022-12-18T03:05:29.184Z,101878.00
2022-12-18T03:08:18.357Z,101890.00
2022-12-18T03:11:01.563Z,101888.00
2022-12-18T03:13:35.096Z,101895.00
2022-12-18T03:16:06.543Z,101887.00
2022-12-18T03:18:44.509Z,101877.00
2022-12-18T03:21:12.973Z,101870.00
2022-12-18T03:23:49.242Z,101888.00
2022-12-18T03:26:22.078Z,101872.00
2022-12-18T03:29:01.367Z,101879.00
2022-12-18T03:31:31.308Z,101880.00
2022-12-18T03:34:04.793Z,101880.00
2022-12-18T03:36:40.780Z,101885.00
2022-12-18T03:39:08.803Z,101891.00
2022-12-18T03:42:09.198Z,101891.00
2022-12-18T03:44:53.452Z,101883.00
2022-12-18T03:47:48.993Z,101861.00
2022-12-18T03:50:18.444Z,101863.00
2022-12-18T03:53:02.368Z,101859.00
2022-12-18T03:55:33.875Z,101862.00
2022-12-18T03:58:06.108Z,101870.00
2022-12-18T04:00:45.774Z,101871.00
2022-12-18T04:03:14.807Z,101858.00
2022-12-18T04:05:51.612Z,101881.00
2022-12-18T04:08:22.533Z,101870.00
2022-12-18T04:11:00.674Z,101871.00
2022-12-18T04:13:36.183Z,101863.00
2022-12-18T04:16:07.588Z,101869.00
2022-12-18T04:18:36.503Z,101865.00
2022-12-18T04:21:05.279Z,101846.00
2022-12-18T04:23:34.254Z,101854.00
2022-12-18T04:26:02.925Z,101850.00
2022-12-18T04:28:53.843Z,101861.00
2022-12-18T04:31:22.482Z,101860.00
2022-12-18T04:33:50.797Z,101856.00
2022-12-18T04:36:18.931Z,101858.00
2022-12-18T04:38:47.645Z,101876.00
2022-12-18T04:41:17.961Z,101860.00
2022-12-18T04:43:48.646Z,101879.00
2022-12-18T04:46:16.403Z,101862.00
2022-12-18T04:48:46.213Z,101880.00
2022-12-18T04:51:14.225Z,101891.00
2022-12-18T04:53:42.442Z,101892.00
2022-12-18T04:56:13.993Z,101885.00
2022-12-18T04:58:44.103Z,101899.00
2022-12-18T05:01:14.105Z,101893.00
2022-12-18T05:03:42.387Z,101898.00
2022-12-18T05:06:10.509Z,101883.00
2022-12-18T05:08:38.335Z,101886.00
2022-12-18T05:11:10.856Z,101879.00
2022-12-18T05:13:39.658Z,101870.00
2022-12-18T05:16:08.343Z,101865.00
2022-12-18T05:18:37.125Z,101863.00
2022-12-18T05:21:05.616Z,101865.00
2022-12-18T05:23:36.228Z,101863.00
2022-12-18T05:26:06.258Z,101869.00
2022-12-18T05:28:35.531Z,101863.00
2022-12-18T05:31:14.864Z,101873.00
2022-12-18T05:33:43.316Z,101873.00
2022-12-18T05:36:12.475Z,101876.00
2022-12-18T05:38:40.855Z,101871.00
2022-12-18T05:41:09.726Z,101864.00
2022-12-18T05:43:38.911Z,101869.00
2022-12-18T05:46:14.630Z,101873.00
2022-12-18T05:48:43.313Z,101871.00
2022-12-18T05:51:15.568Z,101862.00
2022-12-18T05:53:43.926Z,101869.00
2022-12-18T05:56:22.747Z,101857.00
2022-12-18T05:58:54.227Z,101884.00
2022-12-18T06:01:24.916Z,101872.00
2022-12-18T06:03:52.727Z,101876.00
2022-12-18T06:06:25.467Z,101885.00
2022-12-18T06:08:53.501Z,101895.00
2022-12-18T06:11:23.419Z,101886.00
2022-12-18T06:13:58.760Z,101886.00
2022-12-18T06:16:28.174Z,101891.00
2022-12-18T06:18:59.077Z,101904.00
2022-12-18T06:21:28.364Z,101899.00
2022-12-18T06:23:56.348Z,101907.00
2022-12-18T06:26:28.052Z,101904.00
2022-12-18T06:28:56.711Z,101907.00
2022-12-18T06:31:24.647Z,101913.00
2022-12-18T06:33:52.800Z,101918.00
2022-12-18T06:36:21.258Z,101911.00
2022-12-18T06:38:49.051Z,101915.00
2022-12-18T06:41:19.143Z,101917.00
2022-12-18T06:43:47.076Z,101923.00
2022-12-18T06:46:17.886Z,101925.00
2022-12-18T06:48:50.030Z,101925.00
2022-12-18T06:51:24.813Z,101932.00
2022-12-18T06:53:52.670Z,101928.00
2022-12-18T06:56:20.450Z,101925.00
2022-12-18T06:58:48.284Z,101922.00
2022-12-18T07:01:16.353Z,101921.00
2022-12-18T07:03:45.488Z,101931.00
2022-12-18T07:06:18.745Z,101949.00
2022-12-18T07:08:47.244Z,101940.00
2022-12-18T07:11:15.116Z,101943.00
2022-12-18T07:13:43.149Z,101935.00
2022-12-18T07:16:20.837Z,101930.00
2022-12-18T07:18:50.441Z,101930.00
2022-12-18T07:21:20.482Z,101936.00
2022-12-18T07:23:49.373Z,101939.00
2022-12-18T07:26:18.970Z,101941.00
2022-12-18T07:28:47.106Z,101942.00
2022-12-18T07:31:17.649Z,101957.00
2022-12-18T07:33:45.673Z,101952.00
2022-12-18T07:36:14.000Z,101969.00
2022-12-18T07:38:42.142Z,101963.00
2022-12-18T07:41:12.555Z,101960.00
2022-12-18T07:43:41.933Z,101964.00
2022-12-18T07:46:10.948Z,101969.00
2022-12-18T07:48:41.518Z,101960.00
2022-12-18T07:51:09.747Z,101963.00
2022-12-18T07:53:38.645Z,101961.00
2022-12-18T07:58:57.522Z,101974.00
2022-12-18T08:01:25.561Z,101981.00
2022-12-18T08:03:53.623Z,101987.00
2022-12-18T08:06:23.243Z,101993.00
2022-12-18T08:08:56.368Z,101990.00
2022-12-18T08:11:25.647Z,101988.00
2022-12-18T08:13:53.498Z,101992.00
2022-12-18T08:16:21.924Z,101994.00
2022-12-18T08:18:49.875Z,101981.00
2022-12-18T08:21:27.469Z,101999.00
2022-12-18T08:23:57.249Z,101989.00
2022-12-18T08:26:26.026Z,101977.00
2022-12-18T08:28:54.953Z,101971.00
2022-12-18T08:31:23.985Z,101974.00
2022-12-18T08:33:53.490Z,101957.00
2022-12-18T08:36:23.057Z,101951.00
2022-12-18T08:38:51.526Z,101959.00
2022-12-18T08:41:20.256Z,101956.00
2022-12-18T08:44:06.784Z,101956.00
2022-12-18T08:46:38.009Z,101956.00
2022-12-18T08:49:06.727Z,101953.00
2022-12-18T08:51:35.187Z,101946.00
2022-12-18T08:54:03.011Z,101949.00
2022-12-18T08:56:32.962Z,101945.00
2022-12-18T08:59:00.774Z,101940.00
2022-12-18T09:01:29.533Z,101950.00
2022-12-18T09:03:57.511Z,101938.00
2022-12-18T09:06:25.541Z,101948.00
2022-12-18T09:08:53.446Z,101947.00
2022-12-18T09:11:24.129Z,101951.00
2022-12-18T09:13:52.156Z,101946.00
2022-12-18T09:16:28.803Z,101941.00
2022-12-18T09:19:03.216Z,101942.00
2022-12-18T09:21:36.768Z,101944.00
2022-12-18T09:24:08.642Z,101948.00
2022-12-18T09:26:36.960Z,101931.00
2022-12-18T09:29:05.278Z,101939.00
2022-12-18T09:31:33.394Z,101947.00
2022-12-18T09:34:01.165Z,101937.00
2022-12-18T09:36:28.981Z,101931.00
2022-12-18T09:38:56.621Z,101935.00
2022-12-18T09:41:47.290Z,101928.00
2022-12-18T09:44:45.497Z,101929.00
2022-12-18T09:47:27.289Z,101925.00
2022-12-18T09:50:01.903Z,101932.00
2022-12-18T09:52:39.156Z,101925.00
2022-12-18T09:55:28.934Z,101925.00
2022-12-18T09:58:07.750Z,101919.00
2022-12-18T10:00:36.801Z,101923.00
2022-12-18T10:03:15.757Z,101923.00
2022-12-18T10:06:01.615Z,101921.00
2022-12-18T10:08:54.563Z,101924.00
2022-12-18T10:11:28.754Z,101923.00
2022-12-18T10:14:11.286Z,101932.00
2022-12-18T10:16:48.940Z,101931.00
2022-12-18T10:19:34.781Z,101929.00
2022-12-18T10:22:28.737Z,101932.00
2022-12-18T10:25:18.270Z,101938.00
2022-12-18T10:27:46.006Z,101946.00
2022-12-18T10:30:19.419Z,101954.00
2022-12-18T10:32:47.415Z,101947.00
2022-12-18T10:35:26.711Z,101958.00
2022-12-18T10:38:17.366Z,101964.00
2022-12-18T10:41:02.628Z,101958.00
2022-12-18T10:43:40.955Z,101952.00
2022-12-18T10:46:11.848Z,101941.00
2022-12-18T10:48:48.691Z,101945.00
2022-12-18T10:51:37.134Z,101936.00
2022-12-18T10:54:06.509Z,101929.00
2022-12-18T10:56:36.553Z,101938.00
2022-12-18T10:59:06.985Z,101940.00
2022-12-18T11:01:59.420Z,101926.00
2022-12-18T11:04:29.584Z,101926.00
2022-12-18T11:07:01.748Z,101909.00
2022-12-18T11:09:32.982Z,101904.00
2022-12-18T11:12:03.462Z,101907.00
2022-12-18T11:14:47.064Z,101912.00
2022-12-18T11:17:42.857Z,101907.00
2022-12-18T11:20:35.282Z,101917.00
2022-12-18T11:23:06.691Z,101910.00
2022-12-18T11:25:36.013Z,101898.00
2022-12-18T11:28:26.970Z,101894.00
2022-12-18T11:31:19.429Z,101886.00
2022-12-18T11:36:50.102Z,101872.00
2022-12-18T11:39:33.000Z,101870.00
2022-12-18T11:42:44.112Z,101891.00
2022-12-18T11:45:14.497Z,101884.00
2022-12-18T11:47:57.087Z,101884.00
2022-12-18T11:50:30.101Z,101875.00
2022-12-18T11:53:02.803Z,101889.00
2022-12-18T11:55:52.607Z,101898.00
2022-12-18T11:58:31.605Z,101893.00
2022-12-18T12:01:11.941Z,101889.00
2022-12-18T12:03:58.277Z,101879.00
2022-12-18T12:06:54.200Z,101891.00
2022-12-18T12:09:45.592Z,101883.00
2022-12-18T12:12:48.781Z,101878.00
2022-12-18T12:15:54.680Z,101861.00
2022-12-18T12:18:25.460Z,101856.00
2022-12-18T12:21:05.331Z,101852.00
2022-12-18T12:24:03.825Z,101847.00
2022-12-18T12:26:37.492Z,101840.00
2022-12-18T12:29:36.193Z,101843.00
2022-12-18T12:32:17.866Z,101846.00
2022-12-18T12:35:04.754Z,101837.00
2022-12-18T12:37:49.444Z,101828.00
2022-12-18T12:43:21.883Z,101841.00
2022-12-18T12:45:54.891Z,101833.00
2022-12-18T12:48:42.887Z,101824.00
2022-12-18T12:51:25.652Z,101827.00
2022-12-18T12:53:56.215Z,101826.00
2022-12-18T12:56:30.467Z,101825.00
2022-12-18T12:59:22.677Z,101816.00
2022-12-18T13:02:20.000Z,101804.00
2022-12-18T13:04:52.800Z,101794.00
2022-12-18T13:07:39.586Z,101785.00
2022-12-18T13:10:20.880Z,101784.00
2022-12-18T13:12:58.873Z,101788.00
2022-12-18T13:15:40.892Z,101780.00
2022-12-18T13:18:11.861Z,101771.00
2022-12-18T13:23:41.389Z,101767.00
2022-12-18T13:26:12.550Z,101768.00
2022-12-18T13:28:49.297Z,101771.00
2022-12-18T13:31:39.839Z,101754.00
2022-12-18T13:37:35.042Z,101784.00
2022-12-18T13:40:03.267Z,101770.00
2022-12-18T13:42:49.430Z,101771.00
2022-12-18T13:46:02.315Z,101769.00
2022-12-18T13:48:33.132Z,101758.00
2022-12-18T13:51:04.653Z,101750.00
2022-12-18T13:53:38.886Z,101756.00
2022-12-18T13:56:07.551Z,101765.00
2022-12-18T13:58:35.468Z,101765.00
2022-12-18T14:01:05.892Z,101762.00
2022-12-18T14:03:34.064Z,101757.00
2022-12-18T14:06:05.917Z,101749.00
2022-12-18T14:08:35.345Z,101751.00
2022-12-18T14:11:06.493Z,101766.00
2022-12-18T14:13:40.671Z,101760.00
2022-12-18T14:16:09.202Z,101763.00
2022-12-18T14:19:01.522Z,101766.00
2022-12-18T14:21:39.672Z,101762.00
2022-12-18T14:24:14.540Z,101763.00
2022-12-18T14:26:43.061Z,101755.00
2022-12-18T14:29:22.559Z,101758.00
2022-12-18T14:32:17.808Z,101753.00
2022-12-18T14:34:51.370Z,101758.00
2022-12-18T14:37:23.355Z,101746.00
2022-12-18T14:40:13.458Z,101742.00
2022-12-18T14:42:41.916Z,101743.00
2022-12-18T14:45:42.181Z,101757.00
2022-12-18T14:48:15.848Z,101752.00
2022-12-18T14:50:54.942Z,101741.00
2022-12-18T14:53:33.499Z,101723.00
2022-12-18T14:56:02.438Z,101714.00
2022-12-18T14:58:30.631Z,101714.00
2022-12-18T15:00:58.502Z,101701.00
2022-12-18T15:03:27.155Z,101712.00
2022-12-18T15:05:55.036Z,101704.00
2022-12-18T15:08:36.444Z,101709.00
2022-12-18T15:11:08.955Z,101697.00
2022-12-18T15:13:40.205Z,101693.00
2022-12-18T15:16:14.194Z,101698.00
2022-12-18T15:18:44.215Z,101694.00
2022-12-18T15:21:13.153Z,101699.00
2022-12-18T15:23:53.075Z,101685.00
2022-12-18T15:26:23.237Z,101680.00
2022-12-18T15:28:53.110Z,101664.00
2022-12-18T15:31:38.637Z,101663.00
2022-12-18T15:34:15.688Z,101667.00
2022-12-18T15:36:43.666Z,101654.00
2022-12-18T15:39:14.922Z,101641.00
2022-12-18T15:42:02.727Z,101647.00
2022-12-18T15:44:30.682Z,101653.00
2022-12-18T15:46:58.802Z,101641.00
2022-12-18T15:49:26.620Z,101644.00
2022-12-18T15:51:56.449Z,101644.00
2022-12-18T15:54:44.216Z,101655.00
2022-12-18T15:57:25.293Z,101664.00
2022-12-18T15:59:55.341Z,101664.00
2022-12-18T16:02:24.104Z,101664.00
2022-12-18T16:04:56.238Z,101662.00
2022-12-18T16:07:25.718Z,101646.00
2022-12-18T16:09:55.502Z,101649.00
2022-12-18T16:12:26.745Z,101642.00
2022-12-18T16:14:54.702Z,101642.00
2022-12-18T16:17:22.726Z,101639.00
2022-12-18T16:19:50.575Z,101628.00
2022-12-18T16:22:24.792Z,101640.00
2022-12-18T16:24:53.783Z,101620.00
2022-12-18T16:27:22.634Z,101614.00
2022-12-18T16:29:50.736Z,101608.00
2022-12-18T16:32:21.413Z,101608.00
2022-12-18T16:34:49.983Z,101621.00
2022-12-18T16:37:17.994Z,101628.00
2022-12-18T16:39:45.890Z,101619.00
2022-12-18T16:42:17.553Z,101602.00
2022-12-18T16:44:46.622Z,101600.00
2022-12-18T16:47:15.475Z,101603.00
2022-12-18T16:49:45.449Z,101600.00
2022-12-18T16:52:14.656Z,101593.00
2022-12-18T16:54:42.649Z,101590.00
2022-12-18T16:57:15.118Z,101581.00
2022-12-18T16:59:42.842Z,101593.00
2022-12-18T17:02:25.228Z,101585.00
2022-12-18T17:04:58.778Z,101586.00
2022-12-18T17:07:28.494Z,101577.00
2022-12-18T17:09:56.921Z,101582.00
2022-12-18T17:12:25.125Z,101585.00
2022-12-18T17:14:52.896Z,101586.00
2022-12-18T17:17:23.129Z,101577.00
2022-12-18T17:19:52.514Z,101585.00
2022-12-18T17:22:21.271Z,101569.00
2022-12-18T17:24:49.234Z,101566.00
2022-12-18T17:27:17.057Z,101560.00
2022-12-18T17:29:48.430Z,101559.00
2022-12-18T17:32:20.094Z,101567.00
2022-12-18T17:34:48.233Z,101561.00
2022-12-18T17:37:16.430Z,101556.00
2022-12-18T17:39:44.290Z,101555.00
2022-12-18T17:42:15.483Z,101551.00
2022-12-18T17:44:44.115Z,101542.00
2022-12-18T17:47:13.542Z,101534.00
2022-12-18T17:49:41.645Z,101537.00
2022-12-18T17:52:12.628Z,101531.00
2022-12-18T17:54:42.439Z,101525.00
2022-12-18T17:57:10.834Z,101521.00
2022-12-18T17:59:38.804Z,101524.00
2022-12-18T18:02:07.400Z,101535.00
2022-12-18T18:04:36.321Z,101538.00
2022-12-18T18:07:04.071Z,101540.00
2022-12-18T18:09:32.463Z,101534.00
2022-12-18T18:12:18.632Z,101525.00
2022-12-18T18:14:46.484Z,101522.00
2022-12-18T18:17:14.331Z,101526.00
2022-12-18T18:19:42.335Z,101522.00
2022-12-18T18:22:12.081Z,101528.00
2022-12-18T18:24:39.926Z,101515.00
2022-12-18T18:27:07.967Z,101511.00
2022-12-18T18:29:36.791Z,101502.00
2022-12-18T18:32:05.134Z,101502.00
2022-12-18T18:34:33.578Z,101493.00
2022-12-18T18:37:02.423Z,101494.00
2022-12-18T18:39:30.499Z,101487.00
2022-12-18T18:41:58.364Z,101487.00
2022-12-18T18:44:26.632Z,101484.00
2022-12-18T18:46:56.027Z,101492.00
2022-12-18T18:49:27.997Z,101486.00
2022-12-18T18:51:56.945Z,101487.00
2022-12-18T18:54:25.677Z,101490.00
2022-12-18T18:57:19.282Z,101492.00
2022-12-18T18:59:41.591Z,101480.00
2022-12-18T19:02:14.189Z,101477.00
2022-12-18T19:04:46.694Z,101471.00
2022-12-18T19:07:29.888Z,101472.00
2022-12-18T19:10:04.957Z,101465.00
2022-12-18T19:12:52.541Z,101469.00
2022-12-18T19:15:20.394Z,101463.00
2022-12-18T19:17:48.547Z,101457.00
2022-12-18T19:20:18.493Z,101456.00
2022-12-18T19:22:47.979Z,101471.00
2022-12-18T19:25:38.083Z,101464.00
2022-12-18T19:28:13.231Z,101453.00
2022-12-18T19:30:49.856Z,101458.00
2022-12-18T19:33:41.803Z,101461.00
2022-12-18T19:36:19.958Z,101453.00
2022-12-18T19:38:49.192Z,101444.00
2022-12-18T19:41:18.403Z,101427.00
2022-12-18T19:43:47.299Z,101442.00
2022-12-18T19:46:17.565Z,101437.00
2022-12-18T19:48:45.839Z,101435.00
2022-12-18T19:51:19.494Z,101430.00
2022-12-18T19:53:47.687Z,101419.00
2022-12-18T19:56:19.408Z,101418.00
2022-12-18T19:58:47.271Z,101415.00
2022-12-18T20:01:16.893Z,101413.00
2022-12-18T20:03:51.529Z,101410.00
2022-12-18T20:06:32.290Z,101420.00
2022-12-18T20:09:02.735Z,101400.00
2022-12-18T20:11:31.313Z,101394.00
2022-12-18T20:13:59.529Z,101390.00
2022-12-18T20:16:27.817Z,101393.00
2022-12-18T20:18:58.800Z,101390.00
2022-12-18T20:21:27.183Z,101371.00
2022-12-18T20:23:55.953Z,101376.00
2022-12-18T20:26:24.271Z,101378.00
2022-12-18T20:28:52.523Z,101370.00
2022-12-18T20:31:20.528Z,101368.00
2022-12-18T20:33:50.960Z,101372.00
2022-12-18T20:36:24.601Z,101381.00
2022-12-18T20:38:55.724Z,101379.00
2022-12-18T20:41:30.575Z,101381.00
2022-12-18T20:44:23.271Z,101390.00
2022-12-18T20:47:00.132Z,101383.00
2022-12-18T20:49:31.388Z,101378.00
2022-12-18T20:51:59.606Z,101375.00
2022-12-18T20:54:28.249Z,101375.00
2022-12-18T20:56:56.429Z,101368.00
2022-12-18T20:59:25.828Z,101369.00
2022-12-18T21:01:56.987Z,101366.00
2022-12-18T21:04:25.385Z,101359.00
2022-12-18T21:06:59.123Z,101339.00
2022-12-18T21:09:37.413Z,101328.00
2022-12-18T21:12:33.479Z,101317.00
2022-12-18T21:15:04.036Z,101306.00
2022-12-18T21:17:34.539Z,101303.00
2022-12-18T21:20:09.644Z,101315.00
2022-12-18T21:22:41.117Z,101324.00
2022-12-18T21:25:10.091Z,101321.00
2022-12-18T21:27:37.853Z,101336.00
2022-12-18T21:30:06.545Z,101350.00
2022-12-18T21:32:34.499Z,101347.00
2022-12-18T21:35:02.445Z,101323.00
2022-12-18T21:37:30.427Z,101322.00
2022-12-18T21:39:58.953Z,101329.00
2022-12-18T21:42:45.447Z,101329.00
2022-12-18T21:45:13.223Z,101327.00
2022-12-18T21:47:40.995Z,101332.00
2022-12-18T21:50:09.358Z,101341.00
2022-12-18T21:52:37.136Z,101335.00
2022-12-18T21:55:09.735Z,101318.00
2022-12-18T21:57:47.426Z,101327.00
2022-12-18T22:00:19.298Z,101316.00
2022-12-18T22:03:13.352Z,101336.00
2022-12-18T22:05:38.880Z,101332.00
2022-12-18T22:08:07.731Z,101334.00
2022-12-18T22:10:36.159Z,101343.00
2022-12-18T22:13:04.600Z,101315.00
2022-12-18T22:15:32.384Z,101327.00
2022-12-18T22:18:00.625Z,101314.00
2022-12-18T22:20:34.701Z,101306.00
2022-12-18T22:23:05.874Z,101312.00
2022-12-18T22:25:39.175Z,101303.00
2022-12-18T22:28:26.384Z,101298.00
2022-12-18T22:30:58.121Z,101289.00
2022-12-18T22:33:27.541Z,101291.00
2022-12-18T22:35:55.376Z,101288.00
2022-12-18T22:38:23.076Z,101281.00
2022-12-18T22:40:50.958Z,101278.00
2022-12-18T22:43:18.798Z,101276.00
2022-12-18T22:45:47.574Z,101278.00
2022-12-18T22:48:15.707Z,101272.00
2022-12-18T22:50:44.442Z,101277.00
2022-12-18T22:53:12.586Z,101268.00
2022-12-18T22:55:40.257Z,101275.00
2022-12-18T22:58:08.262Z,101269.00
2022-12-18T23:00:36.336Z,101271.00
2022-12-18T23:03:04.275Z,101277.00
2022-12-18T23:05:35.028Z,101274.00
2022-12-18T23:08:02.938Z,101270.00
2022-12-18T23:10:31.206Z,101245.00
2022-12-18T23:12:59.198Z,101253.00
2022-12-18T23:15:29.331Z,101251.00
2022-12-18T23:18:00.011Z,101240.00
2022-12-18T23:20:31.341Z,101229.00
2022-12-18T23:22:59.128Z,101220.00
2022-12-18T23:25:27.074Z,101215.00
2022-12-18T23:27:54.975Z,101216.00
2022-12-18T23:30:22.683Z,101197.00
2022-12-18T23:32:50.532Z,101211.00
2022-12-18T23:35:18.584Z,101197.00
2022-12-18T23:37:59.424Z,101200.00
2022-12-18T23:40:29.034Z,101198.00
2022-12-18T23:42:56.975Z,101194.00
2022-12-18T23:45:24.720Z,101183.00
2022-12-18T23:47:52.816Z,101181.00
2022-12-18T23:50:26.739Z,101186.00
2022-12-18T23:53:02.536Z,101171.00
2022-12-18T23:55:34.674Z,101170.00
2022-12-18T23:58:02.511Z,101180.00
